createdAt,value
2022-11-24T00:03:27.781Z,99429.38
2022-11-24T00:08:30.748Z,99424.72
2022-11-24T00:13:35.117Z,99419.63
2022-11-24T00:18:38.108Z,99413.28
2022-11-24T00:23:41.048Z,99417.91
2022-11-24T00:28:45.927Z,99424.56
2022-11-24T00:33:51.076Z,99424.28
2022-11-24T00:38:54.653Z,99434.31
2022-11-24T00:43:59.080Z,99436.16
2022-11-24T00:49:01.939Z,99437.97
2022-11-24T00:54:06.353Z,99441.38
2022-11-24T00:59:10.562Z,99445.19
2022-11-24T01:04:13.462Z,99446.31
2022-11-24T01:09:16.324Z,99452.94
2022-11-24T01:14:20.727Z,99445.19
2022-11-24T01:19:23.716Z,99455.78
2022-11-24T01:24:26.788Z,99461.16
2022-11-24T01:29:31.224Z,99468.91
2022-11-24T01:34:34.187Z,99479.78
2022-11-24T01:39:37.197Z,99485.28
2022-11-24T01:44:42.477Z,99485.16
2022-11-24T01:49:46.961Z,99493.34
2022-11-24T01:54:51.135Z,99489.09
2022-11-24T01:59:57.062Z,99494.19
2022-11-24T02:05:02.944Z,99489.81
2022-11-24T02:10:08.266Z,99488.66
2022-11-24T02:15:12.715Z,99489.09
2022-11-24T02:20:15.637Z,99493.91
2022-11-24T02:25:24.390Z,99495.16
2022-11-24T02:30:28.669Z,99491.31
2022-11-24T02:35:31.544Z,99496.50
2022-11-24T02:40:34.376Z,99503.00
2022-11-24T02:45:38.764Z,99500.72
2022-11-24T02:50:41.605Z,99515.69
2022-11-24T02:55:44.538Z,99513.00
2022-11-24T03:00:48.789Z,99522.50
2022-11-24T03:05:51.686Z,99520.94
2022-11-24T03:10:54.706Z,99523.09
2022-11-24T03:15:58.933Z,99521.19
2022-11-24T03:21:01.836Z,99516.34
2022-11-24T03:26:09.010Z,99524.09
2022-11-24T03:31:13.384Z,99531.97
2022-11-24T03:36:16.797Z,99534.03
2022-11-24T03:41:19.626Z,99537.13
2022-11-24T03:46:23.886Z,99541.13
2022-11-24T03:51:26.765Z,99540.41
2022-11-24T03:56:29.806Z,99548.53
2022-11-24T04:01:34.043Z,99551.00
2022-11-24T04:06:36.902Z,99555.03
2022-11-24T04:11:56.953Z,99564.66
2022-11-24T04:17:01.133Z,99574.22
2022-11-24T04:22:03.942Z,99578.13
2022-11-24T04:27:06.925Z,99581.31
2022-11-24T04:32:11.227Z,99590.72
2022-11-24T04:37:14.094Z,99592.06
2022-11-24T04:42:17.036Z,99592.56
2022-11-24T04:47:23.626Z,99603.28
2022-11-24T04:52:26.634Z,99607.16
2022-11-24T04:57:29.628Z,99611.94
2022-11-24T05:02:33.849Z,99615.81
2022-11-24T05:07:36.890Z,99626.53
2022-11-24T05:12:39.776Z,99627.19
2022-11-24T05:17:43.955Z,99637.13
2022-11-24T05:22:46.743Z,99639.34
2022-11-24T05:27:49.570Z,99644.81
2022-11-24T05:32:53.857Z,99656.84
2022-11-24T05:37:56.825Z,99648.59
2022-11-24T05:42:59.603Z,99670.38
2022-11-24T05:48:07.240Z,99656.50
2022-11-24T05:53:11.144Z,99649.78
2022-11-24T05:58:14.002Z,99657.31
2022-11-24T06:03:18.193Z,99660.84
2022-11-24T06:08:21.013Z,99680.66
2022-11-24T06:13:23.884Z,99688.81
2022-11-24T06:18:28.118Z,99695.25
2022-11-24T06:23:31.056Z,99697.28
2022-11-24T06:28:33.820Z,99694.75
2022-11-24T06:33:38.787Z,99701.91
2022-11-24T06:38:41.505Z,99705.81
2022-11-24T06:43:44.470Z,99712.94
2022-11-24T06:48:48.682Z,99709.44
2022-11-24T06:53:51.506Z,99720.13
2022-11-24T06:58:54.537Z,99723.16
2022-11-24T07:03:59.078Z,99725.72
2022-11-24T07:09:02.026Z,99726.09
2022-11-24T07:14:04.931Z,99717.31
2022-11-24T07:19:09.984Z,99726.19
2022-11-24T07:24:12.890Z,99734.31
2022-11-24T07:29:15.695Z,99740.63
2022-11-24T07:34:19.792Z,99757.66
2022-11-24T07:39:22.557Z,99756.69
2022-11-24T07:44:25.436Z,99755.94
2022-11-24T07:49:29.557Z,99760.44
2022-11-24T07:54:32.789Z,99759.69
2022-11-24T07:59:35.813Z,99764.50
2022-11-24T08:04:39.954Z,99765.25
2022-11-24T08:09:42.723Z,99767.94
2022-11-24T08:14:45.554Z,99780.09
2022-11-24T08:19:49.699Z,99781.88
2022-11-24T08:24:52.466Z,99783.56
2022-11-24T08:29:55.282Z,99788.47
2022-11-24T08:35:08.561Z,99790.44
2022-11-24T08:40:16.882Z,99798.72
2022-11-24T08:45:21.613Z,99799.34
2022-11-24T08:50:27.309Z,99805.00
2022-11-24T08:55:30.188Z,99795.88
2022-11-24T09:00:33.150Z,99794.78
2022-11-24T09:05:51.844Z,99793.59
2022-11-24T09:10:55.275Z,99803.22
2022-11-24T09:15:58.053Z,99802.97
2022-11-24T09:21:11.714Z,99817.69
2022-11-24T09:26:15.811Z,99812.97
2022-11-24T09:31:18.870Z,99826.34
2022-11-24T09:36:23.248Z,99822.56
2022-11-24T09:41:36.992Z,99825.16
2022-11-24T09:46:43.685Z,99819.69
2022-11-24T09:51:48.310Z,99821.38
2022-11-24T09:56:51.481Z,99821.97
2022-11-24T10:01:54.436Z,99830.00
2022-11-24T10:07:01.232Z,99832.56
2022-11-24T10:12:10.320Z,99830.75
2022-11-24T10:17:18.885Z,99836.84
2022-11-24T10:22:32.065Z,99847.28
2022-11-24T10:27:35.961Z,99847.41
2022-11-24T10:32:39.150Z,99847.19
2022-11-24T10:37:44.594Z,99848.03
2022-11-24T10:42:48.846Z,99846.94
2022-11-24T10:47:51.685Z,99843.53
2022-11-24T10:53:01.629Z,99845.63
2022-11-24T10:58:15.749Z,99845.31
2022-11-24T11:03:19.451Z,99843.50
2022-11-24T11:08:25.770Z,99852.97
2022-11-24T11:13:29.270Z,99852.97
2022-11-24T11:18:33.160Z,99861.16
2022-11-24T11:23:37.320Z,99866.63
2022-11-24T11:28:40.152Z,99861.16
2022-11-24T11:39:08.310Z,99859.84
2022-11-24T11:44:16.510Z,99866.06
2022-11-24T11:49:19.367Z,99861.69
2022-11-24T11:54:28.337Z,99868.72
2022-11-24T11:59:44.443Z,99867.88
2022-11-24T12:04:49.913Z,99873.34
2022-11-24T12:09:58.386Z,99873.34
2022-11-24T12:15:10.315Z,99874.94
2022-11-24T12:20:23.952Z,99882.97
2022-11-24T12:25:29.669Z,99881.50
2022-11-24T12:30:34.592Z,99884.78
2022-11-24T12:35:38.251Z,99892.69
2022-11-24T12:40:50.443Z,99893.53
2022-11-24T12:45:57.010Z,99896.94
2022-11-24T12:50:59.819Z,99895.25
2022-11-24T12:56:08.288Z,99898.91
2022-11-24T13:01:16.953Z,99906.78
2022-11-24T13:06:21.516Z,99904.97
2022-11-24T13:11:40.113Z,99916.66
2022-11-24T13:17:21.748Z,99918.88
2022-11-24T13:22:19.370Z,99931.28
2022-11-24T13:27:46.572Z,99931.31
2022-11-24T13:33:02.183Z,99941.88
2022-11-24T13:38:05.289Z,99934.97
2022-11-24T13:43:24.934Z,99943.38
2022-11-24T13:48:57.242Z,99943.69
2022-11-24T13:54:01.056Z,99948.09
2022-11-24T13:59:16.844Z,99957.34
2022-11-24T14:04:35.747Z,99954.66
2022-11-24T14:09:41.871Z,99959.28
2022-11-24T14:14:46.600Z,99956.34
2022-11-24T14:19:50.094Z,99963.53
2022-11-24T14:24:54.037Z,99963.81
2022-11-24T14:29:59.052Z,99970.44
2022-11-24T14:35:01.995Z,99977.66
2022-11-24T14:40:05.619Z,99982.16
2022-11-24T14:45:18.049Z,99986.06
2022-11-24T14:50:20.878Z,99992.13
2022-11-24T14:55:25.489Z,99995.78
2022-11-24T15:00:30.891Z,100004.47
2022-11-24T15:05:52.320Z,100004.06
2022-11-24T15:10:59.954Z,100019.06
2022-11-24T15:16:05.784Z,100015.75
2022-11-24T15:21:10.022Z,100016.97
2022-11-24T15:26:31.272Z,100024.06
2022-11-24T15:31:37.548Z,100026.72
2022-11-24T15:36:40.384Z,100042.94
2022-11-24T15:41:43.200Z,100040.00
2022-11-24T15:46:47.387Z,100045.84
2022-11-24T15:51:50.189Z,100041.09
2022-11-24T15:56:53.149Z,100036.38
2022-11-24T16:01:57.455Z,100054.88
2022-11-24T16:07:00.746Z,100055.63
2022-11-24T16:12:04.141Z,100055.38
2022-11-24T16:17:08.435Z,100068.53
2022-11-24T16:22:11.242Z,100074.50
2022-11-24T16:27:14.205Z,100077.81
2022-11-24T16:32:18.622Z,100077.41
2022-11-24T16:37:22.043Z,100087.78
2022-11-24T16:42:25.053Z,100081.03
2022-11-24T16:47:29.362Z,100089.19
2022-11-24T16:52:32.348Z,100087.31
2022-11-24T16:57:35.182Z,100089.25
2022-11-24T17:02:39.712Z,100092.88
2022-11-24T17:07:42.940Z,100100.09
2022-11-24T17:12:46.132Z,100089.91
2022-11-24T17:18:22.235Z,100093.81
2022-11-24T17:23:13.189Z,100095.72
2022-11-24T17:28:16.094Z,100102.25
2022-11-24T17:33:20.283Z,100107.38
2022-11-24T17:38:23.120Z,100103.28
2022-11-24T17:43:25.942Z,100109.28
2022-11-24T17:48:30.671Z,100107.75
2022-11-24T17:53:33.458Z,100108.69
2022-11-24T17:58:42.531Z,100112.41
2022-11-24T18:03:50.472Z,100121.44
2022-11-24T18:08:57.343Z,100113.66
2022-11-24T18:14:01.969Z,100123.03
2022-11-24T18:19:10.987Z,100126.78
2022-11-24T18:24:17.513Z,100130.03
2022-11-24T18:29:23.921Z,100135.03
2022-11-24T18:34:28.043Z,100138.28
2022-11-24T18:39:31.047Z,100139.00
2022-11-24T18:44:34.056Z,100148.91
2022-11-24T18:49:38.344Z,100155.59
2022-11-24T18:54:41.809Z,100153.34
2022-11-24T18:59:44.670Z,100146.84
2022-11-24T19:04:48.883Z,100149.41
2022-11-24T19:09:51.674Z,100153.53
2022-11-24T19:14:55.473Z,100150.44
2022-11-24T19:19:59.623Z,100152.31
2022-11-24T19:25:02.639Z,100158.66
2022-11-24T19:30:06.387Z,100169.03
2022-11-24T19:35:10.972Z,100174.41
2022-11-24T19:40:14.915Z,100176.47
2022-11-24T19:45:17.995Z,100182.56
2022-11-24T19:50:22.132Z,100185.81
2022-11-24T19:55:25.061Z,100189.66
2022-11-24T20:00:31.805Z,100194.50
2022-11-24T20:05:36.229Z,100206.69
2022-11-24T20:10:42.386Z,100204.84
2022-11-24T20:15:45.394Z,100211.53
2022-11-24T20:20:49.506Z,100216.22
2022-11-24T20:25:52.287Z,100219.75
2022-11-24T20:30:55.240Z,100220.03
2022-11-24T20:36:04.594Z,100237.19
2022-11-24T20:41:09.400Z,100229.81
2022-11-24T20:46:13.285Z,100225.03
2022-11-24T20:51:18.483Z,100228.72
2022-11-24T20:56:22.305Z,100231.25
2022-11-24T21:01:38.541Z,100233.53
2022-11-24T21:06:42.781Z,100236.94
2022-11-24T21:11:45.589Z,100233.53
2022-11-24T21:16:48.384Z,100237.03
2022-11-24T21:21:52.587Z,100245.25
2022-11-24T21:26:55.331Z,100245.53
2022-11-24T21:31:58.176Z,100248.53
2022-11-24T21:37:02.404Z,100242.81
2022-11-24T21:42:05.599Z,100245.06
2022-11-24T21:47:08.447Z,100248.66
2022-11-24T21:52:12.563Z,100250.16
2022-11-24T21:57:15.377Z,100247.81
2022-11-24T22:02:18.223Z,100259.72
2022-11-24T22:07:22.529Z,100250.06
2022-11-24T22:12:25.440Z,100255.00
2022-11-24T22:17:31.172Z,100254.41
2022-11-24T22:22:35.342Z,100251.88
2022-11-24T22:27:38.136Z,100250.41
2022-11-24T22:32:41.070Z,100258.47
2022-11-24T22:37:45.177Z,100265.84
2022-11-24T22:42:47.939Z,100274.44
2022-11-24T22:47:54.714Z,100281.09
2022-11-24T22:52:58.978Z,100281.59
2022-11-24T22:58:01.940Z,100286.41
2022-11-24T23:03:04.974Z,100292.16
2022-11-24T23:08:09.143Z,100292.44
2022-11-24T23:13:11.923Z,100296.63
2022-11-24T23:18:14.956Z,100306.38
2022-11-24T23:23:19.091Z,100305.94
2022-11-24T23:28:21.871Z,100310.72
2022-11-24T23:33:24.759Z,100312.94
2022-11-24T23:38:30.134Z,100310.38
2022-11-24T23:43:32.927Z,100313.94
2022-11-24T23:48:35.934Z,100317.09
2022-11-24T23:53:40.336Z,100304.50
2022-11-24T23:58:43.326Z,100315.38
